createdAt,value
2022-12-18T00:00:03.406Z,17.60
2022-12-18T00:05:16.616Z,15.57
2022-12-18T00:10:22.177Z,13.90
2022-12-18T00:15:26.393Z,14.68
2022-12-18T00:20:29.533Z,13.50
2022-12-18T00:25:34.872Z,13.70
2022-12-18T00:30:39.145Z,14.43
2022-12-18T00:35:42.044Z,14.15
2022-12-18T00:40:46.650Z,13.23
2022-12-18T00:45:50.973Z,13.00
2022-12-18T00:50:54.098Z,12.07
2022-12-18T00:55:57.163Z,11.43
2022-12-18T01:01:01.561Z,13.02
2022-12-18T01:06:08.183Z,12.05
2022-12-18T01:11:13.083Z,12.18
2022-12-18T01:16:20.117Z,12.82
2022-12-18T01:21:24.539Z,14.05
2022-12-18T01:26:30.399Z,12.90
2022-12-18T01:31:36.308Z,11.65
2022-12-18T01:36:40.922Z,12.38
2022-12-18T01:42:02.229Z,12.07
2022-12-18T01:47:06.971Z,12.63
2022-12-18T01:52:09.991Z,12.50
2022-12-18T01:57:13.511Z,12.77
2022-12-18T02:02:19.102Z,13.40
2022-12-18T02:07:33.517Z,12.82
2022-12-18T02:12:47.118Z,14.00
2022-12-18T02:17:57.311Z,15.27
2022-12-18T02:23:11.852Z,12.70
2022-12-18T02:28:18.798Z,12.27
2022-12-18T02:33:28.261Z,13.57
2022-12-18T02:38:34.786Z,13.38
2022-12-18T02:43:52.463Z,12.10
2022-12-18T02:49:03.539Z,12.98
2022-12-18T02:54:15.792Z,12.30
2022-12-18T02:59:26.500Z,13.68
2022-12-18T03:04:40.373Z,13.07
2022-12-18T03:09:50.514Z,12.88
2022-12-18T03:15:00.474Z,13.25
2022-12-18T03:20:09.541Z,13.50
2022-12-18T03:25:16.806Z,12.65
2022-12-18T03:30:21.597Z,12.77
2022-12-18T03:35:30.628Z,12.70
2022-12-18T03:40:47.122Z,13.00
2022-12-18T03:46:00.474Z,14.00
2022-12-18T03:51:10.264Z,12.43
2022-12-18T03:56:15.889Z,13.85
2022-12-18T04:01:26.090Z,11.85
2022-12-18T04:06:31.387Z,13.23
2022-12-18T04:11:34.459Z,12.68
2022-12-18T04:16:41.416Z,12.18
2022-12-18T04:21:51.242Z,12.77
2022-12-18T04:26:54.454Z,13.68
2022-12-18T04:32:05.193Z,13.35
2022-12-18T04:37:09.494Z,13.23
2022-12-18T04:42:12.510Z,12.40
2022-12-18T04:47:16.728Z,13.40
2022-12-18T04:52:19.562Z,11.45
2022-12-18T04:57:22.393Z,12.80
2022-12-18T05:02:26.690Z,12.32
2022-12-18T05:07:29.569Z,12.98
2022-12-18T05:12:33.698Z,11.43
2022-12-18T05:17:37.911Z,12.52
2022-12-18T05:22:40.740Z,13.02
2022-12-18T05:27:43.736Z,13.68
2022-12-18T05:32:47.914Z,13.45
2022-12-18T05:37:50.744Z,12.25
2022-12-18T05:42:53.586Z,12.35
2022-12-18T05:47:57.989Z,14.30
2022-12-18T05:53:00.845Z,14.07
2022-12-18T05:58:04.128Z,12.80
2022-12-18T06:03:08.994Z,12.05
2022-12-18T06:08:12.710Z,14.73
2022-12-18T06:13:15.546Z,12.77
2022-12-18T06:18:19.663Z,13.00
2022-12-18T06:23:22.468Z,12.77
2022-12-18T06:28:25.316Z,10.77
2022-12-18T06:33:30.293Z,13.15
2022-12-18T06:38:33.718Z,13.05
2022-12-18T06:43:37.016Z,14.20
2022-12-18T06:48:41.796Z,12.60
2022-12-18T06:53:44.610Z,12.50
2022-12-18T06:58:47.474Z,12.50
2022-12-18T07:03:55.739Z,13.68
2022-12-18T07:08:58.653Z,13.20
2022-12-18T07:14:01.687Z,12.52
2022-12-18T07:19:05.853Z,13.40
2022-12-18T07:24:09.429Z,14.13
2022-12-18T07:29:12.230Z,15.10
2022-12-18T07:34:17.059Z,15.85
2022-12-18T07:39:19.888Z,12.88
2022-12-18T07:44:22.755Z,30.63
2022-12-18T07:49:27.022Z,15.52
2022-12-18T07:54:30.441Z,17.65
2022-12-18T07:59:33.263Z,19.55
2022-12-18T08:04:37.523Z,24.25
2022-12-18T08:09:40.327Z,26.15
2022-12-18T08:14:43.198Z,22.35
2022-12-18T08:19:47.391Z,17.10
2022-12-18T08:24:50.186Z,15.07
2022-12-18T08:29:53.185Z,13.73
2022-12-18T08:34:57.471Z,13.35
2022-12-18T08:40:00.297Z,12.60
2022-12-18T08:45:03.224Z,12.95
2022-12-18T08:50:08.247Z,13.40
2022-12-18T08:55:11.746Z,12.57
2022-12-18T09:00:15.764Z,12.93
2022-12-18T09:05:20.975Z,16.23
2022-12-18T09:10:24.157Z,16.23
2022-12-18T09:15:27.128Z,13.88
2022-12-18T09:20:31.400Z,11.93
2022-12-18T09:25:36.785Z,12.10
2022-12-18T09:30:40.099Z,12.18
2022-12-18T09:35:45.911Z,10.63
2022-12-18T09:40:51.190Z,12.35
2022-12-18T09:45:57.376Z,11.70
2022-12-18T09:51:05.805Z,13.65
2022-12-18T09:56:14.384Z,11.73
2022-12-18T10:01:22.224Z,12.10
2022-12-18T10:06:40.033Z,11.18
2022-12-18T10:11:50.109Z,8.95
2022-12-18T10:17:01.879Z,9.10
2022-12-18T10:22:18.421Z,9.02
2022-12-18T10:27:28.009Z,8.35
2022-12-18T10:32:32.157Z,8.45
2022-12-18T10:37:36.439Z,9.00
2022-12-18T10:42:40.665Z,7.03
2022-12-18T10:47:45.707Z,7.13
2022-12-18T10:52:57.359Z,7.18
2022-12-18T10:58:22.185Z,7.23
2022-12-18T11:03:34.056Z,7.40
2022-12-18T11:08:39.303Z,6.95
2022-12-18T11:13:42.586Z,6.05
2022-12-18T11:18:45.462Z,7.47
2022-12-18T11:23:52.868Z,7.10
2022-12-18T11:29:11.167Z,7.43
2022-12-18T11:34:30.275Z,6.93
2022-12-18T11:39:39.602Z,7.63
2022-12-18T11:44:49.535Z,7.22
2022-12-18T11:49:53.272Z,7.63
2022-12-18T11:55:01.819Z,7.00
2022-12-18T12:00:13.216Z,7.20
2022-12-18T12:05:30.735Z,8.83
2022-12-18T12:10:46.156Z,8.40
2022-12-18T12:16:01.368Z,8.80
2022-12-18T12:21:10.092Z,7.53
2022-12-18T12:26:23.422Z,8.35
2022-12-18T12:31:40.363Z,7.13
2022-12-18T12:36:54.598Z,7.93
2022-12-18T12:42:17.245Z,7.82
2022-12-18T12:47:26.139Z,7.75
2022-12-18T12:52:34.434Z,7.93
2022-12-18T12:57:42.037Z,7.85
2022-12-18T13:02:53.355Z,7.75
2022-12-18T13:08:04.676Z,7.93
2022-12-18T13:13:13.422Z,7.82
2022-12-18T13:18:23.527Z,7.15
2022-12-18T13:23:40.994Z,9.52
2022-12-18T13:28:56.174Z,7.18
2022-12-18T13:34:26.089Z,6.97
2022-12-18T13:39:35.950Z,7.13
2022-12-18T13:44:43.067Z,8.55
2022-12-18T13:49:46.437Z,6.88
2022-12-18T13:54:54.496Z,9.70
2022-12-18T14:00:18.189Z,7.40
2022-12-18T14:05:24.687Z,7.40
2022-12-18T14:10:48.699Z,7.97
2022-12-18T14:15:52.712Z,7.57
2022-12-18T14:21:00.995Z,7.38
2022-12-18T14:26:06.409Z,9.80
2022-12-18T14:31:20.404Z,5.95
2022-12-18T14:36:25.668Z,8.20
2022-12-18T14:41:29.759Z,6.05
2022-12-18T14:46:37.725Z,6.00
2022-12-18T14:51:40.694Z,6.03
2022-12-18T14:56:47.006Z,6.45
2022-12-18T15:01:59.147Z,8.63
2022-12-18T15:07:13.434Z,6.35
2022-12-18T15:12:27.949Z,7.97
2022-12-18T15:17:32.274Z,7.05
2022-12-18T15:22:37.492Z,5.47
2022-12-18T15:27:40.463Z,7.72
2022-12-18T15:32:48.664Z,8.65
2022-12-18T15:37:52.955Z,7.20
2022-12-18T15:43:15.022Z,7.07
2022-12-18T15:48:24.048Z,7.80
2022-12-18T15:53:30.025Z,7.60
2022-12-18T15:58:33.776Z,9.15
2022-12-18T16:03:38.628Z,9.18
2022-12-18T16:08:43.009Z,8.00
2022-12-18T16:13:45.790Z,7.38
2022-12-18T16:18:50.195Z,8.68
2022-12-18T16:23:53.005Z,7.53
2022-12-18T16:28:56.432Z,9.00
2022-12-18T16:34:20.336Z,8.25
2022-12-18T16:39:25.510Z,7.45
2022-12-18T16:44:29.542Z,8.68
2022-12-18T16:49:33.854Z,8.88
2022-12-18T16:54:36.908Z,8.38
2022-12-18T16:59:39.750Z,9.70
2022-12-18T17:04:45.246Z,8.68
2022-12-18T17:09:48.833Z,8.25
2022-12-18T17:14:51.866Z,8.98
2022-12-18T17:19:56.723Z,8.45
2022-12-18T17:24:59.589Z,9.68
2022-12-18T17:30:02.505Z,9.30
2022-12-18T17:35:07.580Z,8.50
2022-12-18T17:40:12.088Z,9.77
2022-12-18T17:45:15.075Z,10.95
2022-12-18T17:50:19.482Z,10.85
2022-12-18T17:55:22.306Z,10.77
2022-12-18T18:00:25.384Z,10.25
2022-12-18T18:05:29.699Z,11.30
2022-12-18T18:10:33.281Z,12.50
2022-12-18T18:15:40.639Z,11.50
2022-12-18T18:20:45.140Z,11.93
2022-12-18T18:25:52.253Z,11.57
2022-12-18T18:30:56.444Z,11.32
2022-12-18T18:36:00.920Z,11.88
2022-12-18T18:41:05.193Z,10.80
2022-12-18T18:46:08.267Z,9.82
2022-12-18T18:51:14.680Z,11.63
2022-12-18T19:01:50.464Z,12.15
2022-12-18T19:06:54.817Z,12.35
2022-12-18T19:12:16.598Z,12.30
2022-12-18T19:17:20.489Z,14.77
2022-12-18T19:22:26.985Z,13.60
2022-12-18T19:27:29.818Z,14.55
2022-12-18T19:32:32.856Z,14.32
2022-12-18T19:37:37.085Z,15.45
2022-12-18T19:42:39.899Z,14.50
2022-12-18T19:47:42.702Z,14.65
2022-12-18T19:52:46.948Z,12.70
2022-12-18T19:57:49.917Z,14.52
2022-12-18T20:02:54.296Z,14.85
2022-12-18T20:08:02.661Z,16.48
2022-12-18T20:13:06.458Z,15.15
2022-12-18T20:18:10.260Z,16.17
2022-12-18T20:23:14.588Z,14.93
2022-12-18T20:28:17.430Z,17.40
2022-12-18T20:33:20.238Z,16.55
2022-12-18T20:38:24.416Z,15.93
2022-12-18T20:43:27.637Z,15.05
2022-12-18T20:48:31.450Z,16.67
2022-12-18T20:53:36.698Z,17.38
2022-12-18T20:58:41.569Z,19.98
2022-12-18T21:03:45.973Z,18.88
2022-12-18T21:08:50.615Z,18.00
2022-12-18T21:13:53.491Z,16.83
2022-12-18T21:18:56.565Z,16.60
2022-12-18T21:24:01.945Z,18.77
2022-12-18T21:29:06.482Z,16.52
2022-12-18T21:34:11.613Z,16.95
2022-12-18T21:39:16.824Z,14.98
2022-12-18T21:44:20.324Z,15.10
2022-12-18T21:49:24.266Z,9.85
2022-12-18T21:54:30.410Z,16.25
2022-12-18T21:59:36.107Z,14.77
2022-12-18T22:04:38.921Z,17.58
2022-12-18T22:09:43.934Z,15.73
2022-12-18T22:14:46.809Z,18.27
2022-12-18T22:19:50.427Z,16.60
2022-12-18T22:24:55.125Z,16.55
2022-12-18T22:30:07.085Z,17.25
2022-12-18T22:35:15.584Z,17.88
2022-12-18T22:40:28.547Z,20.00
2022-12-18T22:45:31.596Z,20.38
2022-12-18T22:50:36.601Z,17.02
2022-12-18T22:55:40.859Z,16.95
2022-12-18T23:00:43.718Z,19.50
2022-12-18T23:05:47.777Z,15.32
2022-12-18T23:10:54.494Z,15.40
2022-12-18T23:15:57.435Z,17.65
2022-12-18T23:21:05.549Z,16.90
2022-12-18T23:26:12.117Z,18.67
2022-12-18T23:31:16.961Z,15.88
2022-12-18T23:36:21.080Z,15.88
2022-12-18T23:41:27.266Z,19.00
2022-12-18T23:46:32.222Z,21.55
2022-12-18T23:51:38.247Z,17.45
2022-12-18T23:56:43.885Z,21.65
